Time;durP1;ratioP1;P1;durP2;ratioP2;P2;SDS_P1;SDS_P2;PMS_P1;PMS_P2;Temp;Humidity;BMP_temperature;BMP_pressure;BME280_temperature;BME280_humidity;BME280_pressure;Samples;Min_cycle;Max_cycle;Signal;HPM_P1;HPM_P2
2022/09/10 05:27:21;;;;;;;1.60;1.10;;;21.50;99.90;;;;;;5089421;27;21021;-60
2022/09/10 05:29:47;;;;;;;1.60;1.20;;;21.40;99.90;;;;;;5089223;28;20522;-54
2022/09/10 05:32:14;;;;;;;4.10;1.27;;;21.50;99.90;;;;;;5088526;28;20886;-49
2022/09/10 05:34:42;;;;;;;4.13;1.43;;;21.60;99.90;;;;;;5089237;28;20446;-55
2022/09/10 05:37:10;;;;;;;1.67;1.20;;;21.60;99.90;;;;;;5089085;28;20470;-61
2022/09/10 05:39:37;;;;;;;2.60;2.13;;;21.70;99.90;;;;;;5106080;22;20482;-65
2022/09/10 05:42:06;;;;;;;1.80;1.20;;;21.80;99.90;;;;;;5098488;28;20865;-57
2022/09/10 05:44:34;;;;;;;1.63;1.53;;;21.80;99.90;;;;;;5109389;28;20453;-57
2022/09/10 05:47:01;;;;;;;3.97;2.33;;;21.80;99.90;;;;;;5109409;28;20477;-59
2022/09/10 05:49:29;;;;;;;1.43;1.43;;;21.80;99.90;;;;;;5094730;28;20473;-62
2022/09/10 05:51:56;;;;;;;1.77;1.27;;;21.90;99.90;;;;;;5068780;28;20490;-63
2022/09/10 05:54:23;;;;;;;4.73;2.97;;;21.80;99.90;;;;;;5068562;28;20454;-68
2022/09/10 05:56:52;;;;;;;1.83;1.53;;;21.90;99.90;;;;;;5068783;28;20499;-66
2022/09/10 05:59:19;;;;;;;1.50;1.40;;;21.90;99.90;;;;;;5068390;28;20475;-67
2022/09/10 06:01:50;;;;;;;2.23;1.33;;;22.00;99.90;;;;;;5068119;28;20440;-64
2022/09/10 06:04:17;;;;;;;2.43;1.63;;;22.00;99.90;;;;;;5068506;28;20450;-68
2022/09/10 06:06:45;;;;;;;1.57;1.53;;;22.00;99.90;;;;;;5068165;28;20482;-67
2022/09/10 06:09:12;;;;;;;1.33;1.30;;;22.00;99.90;;;;;;5068193;28;20449;-64
2022/09/10 06:11:39;;;;;;;2.00;1.60;;;22.10;99.90;;;;;;5068686;28;20479;-63
2022/09/10 06:14:06;;;;;;;5.63;1.90;;;22.10;99.90;;;;;;5068205;28;20816;-49
2022/09/10 06:16:33;;;;;;;2.77;1.23;;;22.10;99.90;;;;;;5067877;28;20866;-61
2022/09/10 06:19:01;;;;;;;2.10;1.90;;;22.10;99.90;;;;;;5062287;28;20436;-57
2022/09/10 06:21:28;;;;;;;4.10;1.40;;;22.10;99.90;;;;;;5047557;28;20557;-59
2022/09/10 06:23:58;;;;;;;2.40;2.20;;;22.10;99.90;;;;;;5048130;28;20440;-58
2022/09/10 06:26:26;;;;;;;1.97;1.77;;;22.20;99.90;;;;;;5060786;28;20554;-56
2022/09/10 06:28:55;;;;;;;1.63;1.30;;;22.20;99.90;;;;;;5068306;28;20953;-60
2022/09/10 06:31:22;;;;;;;1.97;1.87;;;22.20;99.90;;;;;;5067203;28;20475;-59
2022/09/10 06:33:49;;;;;;;5.00;1.30;;;22.20;99.90;;;;;;5067143;28;20940;-57
2022/09/10 06:36:18;;;;;;;2.50;1.70;;;22.20;99.90;;;;;;5068064;28;20448;-58
2022/09/10 06:38:48;;;;;;;2.97;1.67;;;22.30;99.90;;;;;;5043221;28;20452;-60
2022/09/10 06:41:16;;;;;;;1.50;1.40;;;22.30;99.90;;;;;;5034229;28;20476;-58
2022/09/10 06:43:43;;;;;;;2.00;1.50;;;22.30;99.90;;;;;;5033565;28;20452;-60
2022/09/10 06:46:13;;;;;;;1.70;1.60;;;22.30;99.90;;;;;;5033957;28;20477;-60
2022/09/10 06:48:41;;;;;;;1.67;1.60;;;22.30;99.90;;;;;;5034201;28;20480;-60
2022/09/10 06:51:09;;;;;;;2.03;1.67;;;22.30;99.90;;;;;;5046798;28;20891;-59
2022/09/10 06:53:37;;;;;;;2.30;2.20;;;22.40;99.90;;;;;;5052732;28;20459;-62
2022/09/10 06:56:07;;;;;;;1.80;1.70;;;22.40;99.90;;;;;;5045071;28;20520;-59
2022/09/10 06:58:34;;;;;;;1.60;1.50;;;22.40;99.90;;;;;;5034873;28;20445;-59
2022/09/10 07:01:07;;;;;;;1.87;1.77;;;22.40;99.90;;;;;;5039628;28;20487;-59
2022/09/10 07:03:35;;;;;;;2.50;1.70;;;22.40;99.90;;;;;;5053959;28;20440;-58
2022/09/10 07:06:07;;;;;;;2.07;1.97;;;22.40;99.90;;;;;;5053754;28;20486;-61
2022/09/10 07:08:34;;;;;;;1.90;1.80;;;22.40;99.90;;;;;;5053893;28;20448;-57
2022/09/10 07:11:05;;;;;;;2.20;1.67;;;22.50;99.90;;;;;;5053625;28;20490;-56
2022/09/10 07:13:32;;;;;;;3.17;2.30;;;22.40;99.90;;;;;;5045059;28;20445;-55
2022/09/10 07:15:59;;;;;;;2.43;2.00;;;22.50;99.90;;;;;;5033833;28;20445;-54
2022/09/10 07:18:27;;;;;;;2.37;2.17;;;22.50;99.90;;;;;;5053464;28;20780;-52
2022/09/10 07:21:05;;;;;;;1.70;1.50;;;22.50;99.90;;;;;;5053301;28;20472;-57
2022/09/10 07:23:32;;;;;;;3.43;2.23;;;22.50;99.90;;;;;;5053583;28;20444;-57
2022/09/10 07:26:05;;;;;;;3.10;2.20;;;22.50;99.90;;;;;;5053082;28;20512;-58
2022/09/10 07:28:32;;;;;;;3.60;2.10;;;22.50;99.90;;;;;;5053260;28;20444;-57
2022/09/10 07:30:59;;;;;;;2.37;2.17;;;22.50;99.90;;;;;;5052944;28;21044;-58
2022/09/10 07:33:25;;;;;;;3.00;2.23;;;22.50;99.90;;;;;;5053344;28;21040;-55
2022/09/10 07:35:52;;;;;;;2.10;1.90;;;22.50;99.90;;;;;;5053293;28;20537;-61
2022/09/10 07:38:19;;;;;;;2.23;2.10;;;22.60;99.90;;;;;;5053191;28;20488;-61
2022/09/10 07:40:47;;;;;;;3.00;2.70;;;22.60;99.90;;;;;;5052931;28;20468;-62
2022/09/10 07:43:16;;;;;;;2.53;2.40;;;22.60;99.90;;;;;;5053165;28;20487;-54
2022/09/10 07:45:43;;;;;;;2.77;2.50;;;22.60;99.90;;;;;;5053430;28;20455;-60
2022/09/10 07:48:12;;;;;;;5.30;2.57;;;22.60;99.90;;;;;;5053314;28;20486;-57
2022/09/10 07:50:38;;;;;;;6.80;2.50;;;22.60;99.90;;;;;;5052427;28;20691;-57
2022/09/10 07:53:05;;;;;;;3.60;3.20;;;22.60;99.90;;;;;;5053363;28;20456;-60
2022/09/10 07:55:32;;;;;;;2.93;2.60;;;22.60;99.90;;;;;;5053251;28;20572;-60
2022/09/10 07:57:59;;;;;;;4.40;2.43;;;22.70;99.90;;;;;;5052849;28;20883;-64
2022/09/10 08:00:28;;;;;;;3.90;3.20;;;22.70;99.90;;;;;;5052975;28;20549;-62
2022/09/10 08:02:55;;;;;;;2.57;2.37;;;22.70;99.90;;;;;;5053323;28;20440;-62
2022/09/10 08:05:22;;;;;;;3.83;3.13;;;22.70;99.90;;;;;;5053258;28;20448;-57
2022/09/10 08:07:52;;;;;;;3.07;2.40;;;22.70;99.90;;;;;;5052429;28;20475;-65
2022/09/10 08:10:19;;;;;;;2.53;2.30;;;22.70;99.90;;;;;;5053314;28;20668;-59
2022/09/10 08:12:46;;;;;;;4.70;2.17;;;22.70;99.90;;;;;;5052838;28;20449;-64
2022/09/10 08:15:13;;;;;;;4.93;3.07;;;22.70;99.90;;;;;;5053428;28;20874;-62
2022/09/10 08:17:41;;;;;;;4.57;2.80;;;22.80;99.90;;;;;;5051832;28;20881;-63
2022/09/10 08:20:10;;;;;;;5.97;4.00;;;22.80;99.90;;;;;;5053108;28;20277;-65
2022/09/10 08:22:36;;;;;;;4.57;2.67;;;22.80;99.90;;;;;;5052936;28;20531;-63
2022/09/10 08:25:04;;;;;;;5.00;3.10;;;22.90;99.90;;;;;;5053138;28;20479;-65
2022/09/10 08:27:33;;;;;;;3.40;3.10;;;22.90;99.90;;;;;;5053262;28;20479;-64
2022/09/10 08:30:00;;;;;;;7.23;3.80;;;22.90;99.90;;;;;;5052786;28;20981;-64
2022/09/10 08:32:27;;;;;;;5.17;4.13;;;22.90;99.90;;;;;;5052535;28;20440;-64
2022/09/10 08:34:56;;;;;;;5.90;4.03;;;22.80;99.90;;;;;;5052916;28;20444;-64
2022/09/10 08:37:22;;;;;;;4.30;3.80;;;22.80;99.90;;;;;;5052951;28;20440;-63
2022/09/10 08:39:49;;;;;;;6.57;3.80;;;22.80;99.90;;;;;;5052730;28;20993;-64
2022/09/10 08:42:20;;;;;;;4.27;3.87;;;22.80;99.90;;;;;;5052611;28;20488;-63
2022/09/10 08:44:50;;;;;;;4.80;4.33;;;22.80;99.90;;;;;;5052455;28;20478;-64
2022/09/10 08:47:24;;;;;;;5.60;4.20;;;22.80;99.90;;;;;;5052570;28;20571;-65
2022/09/10 08:49:54;;;;;;;7.93;5.10;;;22.80;99.90;;;;;;5052144;28;20488;-64
2022/09/10 08:52:29;;;;;;;6.10;3.93;;;22.80;99.90;;;;;;5052227;28;20535;-63
2022/09/10 08:55:02;;;;;;;4.27;3.93;;;22.80;99.90;;;;;;5052503;28;20448;-64
2022/09/10 08:57:35;;;;;;;3.70;2.83;;;22.80;99.90;;;;;;5051191;28;20448;-61
2022/09/10 09:00:03;;;;;;;6.93;2.90;;;22.70;99.90;;;;;;5051481;28;20827;-69
2022/09/10 09:02:39;;;;;;;3.07;2.87;;;22.80;99.90;;;;;;5051772;28;20531;-64
2022/09/10 09:05:13;;;;;;;6.73;2.83;;;22.80;99.90;;;;;;5052332;28;20455;-62
2022/09/10 09:07:43;;;;;;;2.60;2.40;;;22.80;99.90;;;;;;5051583;28;20479;-61
2022/09/10 09:10:19;;;;;;;3.47;3.17;;;22.80;99.90;;;;;;5051583;28;20468;-64
2022/09/10 09:12:54;;;;;;;3.37;3.00;;;22.80;99.90;;;;;;5051677;28;20458;-62
2022/09/10 09:15:27;;;;;;;2.67;2.47;;;22.80;99.90;;;;;;5051854;28;20668;-60
2022/09/10 09:18:09;;;;;;;4.53;2.50;;;22.80;99.90;;;;;;5051887;28;20498;-65
2022/09/10 09:20:43;;;;;;;5.57;3.00;;;22.90;99.90;;;;;;5052420;28;20521;-63
2022/09/10 09:23:20;;;;;;;3.30;2.27;;;22.90;99.90;;;;;;5051940;28;20452;-56
2022/09/10 09:25:49;;;;;;;3.63;2.80;;;22.90;99.90;;;;;;5052199;28;20440;-59
2022/09/10 09:28:26;;;;;;;3.13;2.33;;;22.90;99.90;;;;;;5052617;28;20506;-60
2022/09/10 09:30:55;;;;;;;3.00;2.70;;;22.90;99.90;;;;;;5051726;28;20551;-72
2022/09/10 09:33:23;;;;;;;3.73;2.83;;;22.90;99.90;;;;;;5031983;28;20448;-65
2022/09/10 09:35:54;;;;;;;5.03;3.10;;;22.90;99.90;;;;;;5032096;28;20535;-64
2022/09/10 09:38:24;;;;;;;6.03;4.03;;;22.90;99.90;;;;;;5052677;28;20880;-69
2022/09/10 09:40:55;;;;;;;3.90;3.60;;;22.90;99.90;;;;;;5052415;28;20503;-67
2022/09/10 09:43:34;;;;;;;6.53;2.60;;;22.90;99.90;;;;;;5051823;28;20532;-56
2022/09/10 09:46:02;;;;;;;3.17;2.23;;;22.90;99.90;;;;;;5051705;28;20443;-59
2022/09/10 09:48:37;;;;;;;3.07;2.83;;;22.90;99.90;;;;;;5051267;28;20477;-63
2022/09/10 09:51:07;;;;;;;3.10;2.23;;;22.80;99.90;;;;;;5051310;28;20468;-65
2022/09/10 09:53:42;;;;;;;3.67;3.00;;;22.80;99.90;;;;;;5051868;28;20896;-66
2022/09/10 09:56:21;;;;;;;2.27;2.07;;;22.80;99.90;;;;;;5051763;28;20439;-66
2022/09/10 09:58:57;;;;;;;4.40;2.27;;;22.90;99.90;;;;;;5031670;28;20524;-66
2022/09/10 10:01:27;;;;;;;2.53;2.03;;;22.80;99.90;;;;;;5040893;28;20459;-66
2022/09/10 10:03:59;;;;;;;2.97;2.63;;;22.80;99.90;;;;;;5050945;28;20956;-66
2022/09/10 10:06:29;;;;;;;5.17;2.53;;;22.80;99.90;;;;;;5050582;28;20449;-66
2022/09/10 10:09:04;;;;;;;5.30;2.10;;;22.90;99.90;;;;;;5050669;28;20988;-65
2022/09/10 10:11:50;;;;;;;6.77;3.53;;;22.80;99.90;;;;;;5050738;28;20987;-65
2022/09/10 10:14:37;;;;;;;6.67;3.40;;;22.90;99.90;;;;;;5055423;28;20460;-66
2022/09/10 10:17:22;;;;;;;9.40;3.90;;;22.90;99.90;;;;;;5054821;28;20519;-65
2022/09/10 10:19:58;;;;;;;8.83;3.80;;;22.90;99.90;;;;;;5055354;28;20464;-66
2022/09/10 10:22:28;;;;;;;7.23;3.03;;;22.80;99.90;;;;;;5055034;28;20444;-67
2022/09/10 10:24:57;;;;;;;9.80;4.47;;;22.90;99.90;;;;;;5055173;28;20440;-66
2022/09/10 10:27:29;;;;;;;4.17;2.83;;;22.90;99.90;;;;;;5054934;28;20476;-66
2022/09/10 10:29:59;;;;;;;5.37;3.03;;;22.90;99.90;;;;;;5055248;28;20464;-64
2022/09/10 10:32:37;;;;;;;6.27;4.50;;;22.90;99.90;;;;;;5054813;28;21017;-65
2022/09/10 10:35:19;;;;;;;6.10;3.33;;;22.90;99.90;;;;;;5054842;28;20448;-64
2022/09/10 10:37:59;;;;;;;4.17;3.07;;;22.90;99.90;;;;;;5054507;28;20531;-65
2022/09/10 10:40:32;;;;;;;3.63;2.90;;;22.90;99.90;;;;;;5054490;28;21055;-65
2022/09/10 10:43:12;;;;;;;3.20;2.57;;;22.90;99.90;;;;;;5054268;28;21310;-63
2022/09/10 10:45:52;;;;;;;2.83;2.50;;;22.90;99.90;;;;;;5055167;28;20452;-64
2022/09/10 10:48:28;;;;;;;5.10;2.80;;;22.90;99.90;;;;;;5054082;28;20479;-65
2022/09/10 10:51:02;;;;;;;3.50;2.80;;;22.90;99.90;;;;;;5054061;28;20981;-64
2022/09/10 10:53:48;;;;;;;5.40;2.67;;;22.90;99.90;;;;;;5054273;28;21028;-64
2022/09/10 10:56:21;;;;;;;2.77;2.57;;;22.90;99.90;;;;;;5054310;28;20444;-64
2022/09/10 10:58:59;;;;;;;4.33;2.70;;;22.90;99.90;;;;;;5054594;28;20930;-63
2022/09/10 11:01:28;;;;;;;2.60;2.40;;;22.80;99.90;;;;;;5054446;28;20996;-61
2022/09/10 11:04:04;;;;;;;2.70;2.50;;;22.80;99.90;;;;;;5054779;28;20444;-62
2022/09/10 11:06:37;;;;;;;2.83;2.60;;;22.90;99.90;;;;;;5054330;28;20864;-63
2022/09/10 11:09:10;;;;;;;2.90;2.70;;;22.80;99.90;;;;;;5054528;28;20459;-62
2022/09/10 11:11:46;;;;;;;2.30;2.10;;;22.80;99.90;;;;;;5053935;28;20462;-63
2022/09/10 11:14:21;;;;;;;2.40;2.20;;;22.80;99.90;;;;;;5054049;28;20458;-66
2022/09/10 11:16:54;;;;;;;3.10;2.50;;;22.80;99.90;;;;;;5053762;28;20436;-65
2022/09/10 11:19:30;;;;;;;3.70;3.30;;;22.80;99.90;;;;;;5053496;28;20460;-64
2022/09/10 11:22:03;;;;;;;3.37;3.17;;;22.80;99.90;;;;;;5048931;28;20464;-64
2022/09/10 11:24:38;;;;;;;2.90;2.63;;;22.90;99.90;;;;;;5047132;28;20478;-67
2022/09/10 11:27:11;;;;;;;2.80;2.57;;;22.90;99.90;;;;;;5053450;28;20502;-65
2022/09/10 11:29:42;;;;;;;5.13;2.80;;;22.90;99.90;;;;;;5053426;28;20474;-59
2022/09/10 11:32:19;;;;;;;3.50;2.57;;;22.90;99.90;;;;;;5053309;28;20452;-68
2022/09/10 11:34:55;;;;;;;2.10;1.90;;;22.90;99.90;;;;;;5053340;28;20448;-64
2022/09/10 11:37:35;;;;;;;3.23;3.03;;;22.90;99.90;;;;;;5053328;28;20803;-64
2022/09/10 11:40:08;;;;;;;2.50;2.40;;;22.90;99.90;;;;;;5068194;22;20506;-61
2022/09/10 11:42:41;;;;;;;2.63;2.53;;;22.90;99.90;;;;;;5052481;28;20528;-62
2022/09/10 11:45:18;;;;;;;3.00;2.80;;;22.90;99.90;;;;;;5053302;28;20454;-58
2022/09/10 11:47:59;;;;;;;2.70;2.27;;;22.90;99.90;;;;;;5053275;28;20510;-64
2022/09/10 11:50:30;;;;;;;7.17;3.87;;;22.90;99.90;;;;;;5052703;28;20472;-65
2022/09/10 11:52:58;;;;;;;2.67;2.57;;;22.90;99.90;;;;;;5053216;28;20535;-63
2022/09/10 11:55:32;;;;;;;2.60;2.40;;;22.90;99.90;;;;;;5053223;28;20452;-64
2022/09/10 11:58:06;;;;;;;3.50;3.30;;;22.90;99.90;;;;;;5053177;28;20440;-62
2022/09/10 12:00:40;;;;;;;2.80;2.60;;;22.90;99.90;;;;;;5052405;28;20496;-62
2022/09/10 12:03:35;;;;;;;3.80;2.70;;;22.90;99.90;;;;;;5052922;28;20468;-63
2022/09/10 12:06:06;;;;;;;2.70;2.50;;;22.90;99.90;;;;;;5052958;28;20444;-62
2022/09/10 12:08:50;;;;;;;5.03;3.63;;;22.90;99.90;;;;;;5052882;28;20512;-61
2022/09/10 12:11:24;;;;;;;2.73;2.60;;;22.90;99.90;;;;;;5052359;28;20472;-61
2022/09/10 12:13:52;;;;;;;2.60;2.40;;;22.90;99.90;;;;;;5052871;28;20944;-64
2022/09/10 12:16:28;;;;;;;4.50;3.40;;;22.90;99.90;;;;;;5052922;28;20959;-65
2022/09/10 12:18:56;;;;;;;3.20;2.90;;;22.90;99.90;;;;;;5053129;28;20443;-60
2022/09/10 12:21:32;;;;;;;2.63;2.53;;;22.90;99.90;;;;;;5051983;28;20470;-60
2022/09/10 12:24:01;;;;;;;3.00;2.57;;;22.90;99.90;;;;;;5052624;28;20519;-60
2022/09/10 12:26:28;;;;;;;3.10;2.90;;;22.90;99.90;;;;;;5052897;28;20447;-59
2022/09/10 12:29:00;;;;;;;3.00;2.80;;;22.90;99.90;;;;;;5052512;28;20480;-61
2022/09/10 12:31:27;;;;;;;2.97;2.70;;;22.90;99.90;;;;;;5052765;28;20464;-60
2022/09/10 12:34:16;;;;;;;4.60;2.97;;;22.90;99.90;;;;;;5052899;28;20480;-61
2022/09/10 12:37:24;;;;;;;3.30;3.00;;;22.90;99.90;;;;;;5052733;28;20458;-61
2022/09/10 12:40:30;;;;;;;3.27;2.97;;;22.90;99.90;;;;;;5052324;28;20478;-63
2022/09/10 12:42:59;;;;;;;3.13;2.90;;;22.90;99.90;;;;;;5037522;28;20502;-61
2022/09/10 12:46:16;;;;;;;3.20;3.00;;;22.90;99.90;;;;;;5052638;28;20535;-61
2022/09/10 12:48:46;;;;;;;4.80;3.03;;;22.90;99.90;;;;;;4952417;29;20491;-61
2022/09/10 12:51:29;;;;;;;2.90;2.70;;;22.90;99.90;;;;;;4951329;29;20473;-61
2022/09/10 12:54:14;;;;;;;3.70;3.50;;;22.90;99.90;;;;;;5021163;28;20448;-62
2022/09/10 12:57:08;;;;;;;4.07;3.37;;;22.90;99.90;;;;;;5052705;28;20842;-57
2022/09/10 13:00:01;;;;;;;3.40;3.30;;;22.90;99.90;;;;;;5052139;28;20474;-61
2022/09/10 13:02:33;;;;;;;3.23;3.03;;;22.90;99.90;;;;;;5052345;28;20973;-56
2022/09/10 13:05:05;;;;;;;3.23;3.13;;;22.90;99.90;;;;;;5052139;28;20487;-62
2022/09/10 13:07:40;;;;;;;3.50;3.13;;;23.00;99.90;;;;;;5051821;28;20440;-59
2022/09/10 13:10:18;;;;;;;2.77;2.67;;;23.00;99.90;;;;;;5051649;28;20464;-59
2022/09/10 13:12:46;;;;;;;3.47;3.27;;;23.00;99.90;;;;;;5051772;28;20914;-62
2022/09/10 13:15:18;;;;;;;3.03;2.90;;;23.00;99.90;;;;;;5051767;28;20536;-60
2022/09/10 13:18:28;;;;;;;3.87;3.57;;;23.00;99.90;;;;;;5051995;28;20440;-60
2022/09/10 13:20:58;;;;;;;3.20;2.90;;;23.00;99.90;;;;;;5026781;28;20522;-63
2022/09/10 13:23:47;;;;;;;3.40;3.20;;;23.00;99.90;;;;;;5051610;28;20539;-65
2022/09/10 13:26:47;;;;;;;2.73;2.50;;;23.00;99.90;;;;;;5052042;28;20441;-63
2022/09/10 13:29:28;;;;;;;3.13;2.93;;;23.00;99.90;;;;;;5045728;28;20484;-62
2022/09/10 13:32:01;;;;;;;3.53;3.23;;;23.00;99.90;;;;;;5046940;28;20535;-64
2022/09/10 13:35:11;;;;;;;3.20;3.00;;;23.00;99.90;;;;;;5051770;28;20512;-64
2022/09/10 13:37:58;;;;;;;4.13;3.50;;;23.00;99.90;;;;;;5001668;28;20527;-63
2022/09/10 13:40:42;;;;;;;3.63;2.60;;;23.00;99.90;;;;;;5050983;28;20533;-64
2022/09/10 13:43:24;;;;;;;3.67;3.47;;;23.00;99.90;;;;;;5051574;28;20815;-64
2022/09/10 13:45:54;;;;;;;3.80;3.53;;;23.00;99.90;;;;;;5051971;28;20823;-64
2022/09/10 13:48:24;;;;;;;3.90;3.70;;;23.00;99.90;;;;;;5053698;28;20515;-64
2022/09/10 13:51:01;;;;;;;2.43;2.33;;;23.00;99.90;;;;;;5055236;28;20460;-60
2022/09/10 13:53:30;;;;;;;3.27;3.07;;;23.10;99.90;;;;;;5055425;28;20976;-62
2022/09/10 13:55:59;;;;;;;3.20;3.10;;;23.10;99.90;;;;;;5055376;28;20452;-61
2022/09/10 13:58:32;;;;;;;3.43;3.20;;;23.10;99.90;;;;;;5054879;28;20440;-62
2022/09/10 14:01:01;;;;;;;3.27;3.07;;;23.00;99.90;;;;;;5055233;28;20550;-62
2022/09/10 14:03:31;;;;;;;2.60;2.40;;;23.00;99.90;;;;;;5055147;28;20451;-67
2022/09/10 14:06:02;;;;;;;2.90;2.70;;;23.00;99.90;;;;;;5055344;28;20527;-66
2022/09/10 14:08:34;;;;;;;4.67;3.43;;;23.00;99.90;;;;;;5054675;28;20486;-65
2022/09/10 14:11:07;;;;;;;2.77;2.60;;;23.00;99.90;;;;;;5054965;28;20519;-64
2022/09/10 14:13:39;;;;;;;2.80;2.57;;;23.00;99.90;;;;;;5055043;28;20444;-64
2022/09/10 15:52:19;;;;;;;2.73;2.53;;;22.90;99.90;;;;;;5090355;28;20545;-65
2022/09/10 15:54:46;;;;;;;5.50;2.80;;;22.90;99.90;;;;;;5091244;28;20438;-66
2022/09/10 15:57:14;;;;;;;2.53;2.43;;;22.90;99.90;;;;;;5092796;28;20443;-66
2022/09/10 15:59:40;;;;;;;2.63;2.50;;;22.90;99.90;;;;;;5085081;28;20520;-63
2022/09/10 16:02:11;;;;;;;2.20;2.10;;;22.90;99.90;;;;;;5094934;28;20474;-64
2022/09/10 16:04:39;;;;;;;2.77;2.53;;;23.00;99.90;;;;;;5091074;28;20455;-68
2022/09/10 16:07:08;;;;;;;2.53;2.40;;;23.00;99.90;;;;;;5090331;28;20526;-65
2022/09/10 16:09:36;;;;;;;2.20;2.00;;;23.00;99.90;;;;;;5069801;28;20445;-64
2022/09/10 16:12:03;;;;;;;1.73;1.73;;;23.00;99.90;;;;;;5069075;28;20479;-63
2022/09/10 16:14:31;;;;;;;2.10;2.00;;;23.10;99.90;;;;;;5069138;28;20526;-64
2022/09/10 16:16:59;;;;;;;2.13;2.03;;;23.10;99.90;;;;;;5068807;28;20440;-64
2022/09/10 16:19:26;;;;;;;2.00;1.90;;;23.10;99.90;;;;;;5068539;28;20447;-65
2022/09/10 16:21:53;;;;;;;2.40;2.20;;;23.10;99.90;;;;;;5068930;28;20527;-64
2022/09/10 16:24:20;;;;;;;1.90;1.80;;;23.10;99.90;;;;;;5068837;28;21008;-65
2022/09/10 16:26:48;;;;;;;2.40;2.20;;;23.10;99.90;;;;;;5069070;28;20443;-65
2022/09/10 16:29:17;;;;;;;1.90;1.80;;;23.10;99.90;;;;;;5068701;28;20521;-65
2022/09/10 16:31:45;;;;;;;1.70;1.70;;;23.10;99.90;;;;;;5068835;28;20483;-65
2022/09/10 16:34:16;;;;;;;1.93;1.83;;;23.10;99.90;;;;;;5069341;28;20443;-65
2022/09/10 16:36:44;;;;;;;1.80;1.70;;;23.10;99.90;;;;;;5068786;28;20447;-65
2022/09/10 18:25:42;;;;;;;2.50;2.27;;;22.90;99.90;;;;;;5151267;27;20545;-65
2022/09/10 18:28:10;;;;;;;2.63;2.53;;;22.80;99.90;;;;;;5151344;27;20518;-63
2022/09/10 18:30:37;;;;;;;2.70;2.60;;;22.90;99.90;;;;;;5161107;27;20461;-60
2022/09/10 18:33:05;;;;;;;4.23;2.70;;;22.90;99.90;;;;;;5171815;27;20431;-57
2022/09/10 18:35:34;;;;;;;3.00;2.83;;;22.90;99.90;;;;;;5171940;27;20811;-60
2022/09/10 18:38:01;;;;;;;2.70;2.60;;;23.00;99.90;;;;;;5172462;27;20439;-66
2022/09/10 18:40:28;;;;;;;2.87;2.73;;;23.00;99.90;;;;;;5175117;27;20837;-63
2022/09/10 18:42:57;;;;;;;2.73;2.63;;;23.00;99.90;;;;;;5171356;27;20443;-63
2022/09/10 18:45:24;;;;;;;2.43;2.33;;;23.00;99.90;;;;;;5171427;27;20561;-65
2022/09/10 18:47:51;;;;;;;2.60;2.50;;;23.00;99.90;;;;;;5171670;27;20439;-64
2022/09/10 18:50:18;;;;;;;3.13;2.90;;;23.00;99.90;;;;;;5188215;27;20458;-63
2022/09/10 18:52:45;;;;;;;3.07;2.70;;;23.10;99.90;;;;;;5192330;27;20505;-64
2022/09/10 18:55:12;;;;;;;2.90;2.70;;;23.00;99.90;;;;;;5192398;27;20537;-64
2022/09/10 18:57:39;;;;;;;2.60;2.40;;;23.10;99.90;;;;;;5192406;27;20438;-66
2022/09/10 19:00:09;;;;;;;3.00;2.80;;;23.00;99.90;;;;;;5177189;27;20505;-65
2022/09/10 19:02:36;;;;;;;2.80;2.70;;;23.10;99.90;;;;;;5172625;27;20497;-65
2022/09/10 19:05:03;;;;;;;2.93;2.73;;;23.10;99.90;;;;;;5173149;27;20485;-65
2022/09/10 19:07:30;;;;;;;2.80;2.60;;;23.10;99.90;;;;;;5171665;27;20771;-66
2022/09/10 19:09:57;;;;;;;3.50;3.30;;;23.10;99.90;;;;;;5184408;27;20462;-63
2022/09/10 19:12:25;;;;;;;2.73;2.53;;;23.10;99.90;;;;;;5191095;27;20438;-59
2022/09/10 19:14:52;;;;;;;3.47;3.17;;;23.00;99.90;;;;;;5192246;27;20449;-60
2022/09/10 19:17:20;;;;;;;2.73;2.63;;;23.10;99.90;;;;;;5191947;27;20487;-60
2022/09/10 19:19:48;;;;;;;3.17;3.07;;;23.10;99.90;;;;;;5179966;27;21210;-64
2022/09/10 19:22:16;;;;;;;3.17;2.87;;;23.10;99.90;;;;;;5170687;27;20489;-61
2022/09/10 19:24:44;;;;;;;3.23;3.00;;;23.10;99.90;;;;;;5170853;27;21000;-59
2022/09/10 19:27:11;;;;;;;3.30;2.67;;;23.10;99.90;;;;;;5170876;27;20449;-58
2022/09/10 19:29:41;;;;;;;3.30;3.10;;;23.10;99.90;;;;;;5179655;27;20525;-62
2022/09/10 19:32:10;;;;;;;3.70;3.47;;;23.00;99.90;;;;;;5191358;27;20434;-59
2022/09/10 19:34:38;;;;;;;2.90;2.70;;;23.00;99.90;;;;;;5191723;27;20444;-66
2022/09/10 19:37:06;;;;;;;3.20;3.10;;;23.00;99.90;;;;;;5177263;27;20953;-67
2022/09/10 19:39:32;;;;;;;2.60;2.50;;;23.00;99.90;;;;;;5168901;27;20448;-66
2022/09/10 19:41:59;;;;;;;2.87;2.73;;;23.10;99.90;;;;;;5156505;27;20860;-65
2022/09/10 19:44:26;;;;;;;2.50;2.40;;;23.10;99.90;;;;;;5156674;27;20479;-65
2022/09/10 19:46:54;;;;;;;2.83;2.73;;;23.10;99.90;;;;;;5156240;27;20526;-61
2022/09/10 19:49:21;;;;;;;2.90;2.80;;;23.10;99.90;;;;;;5161826;27;20435;-63
2022/09/10 19:51:49;;;;;;;3.13;2.93;;;23.10;99.90;;;;;;5177145;27;21016;-62
2022/09/10 19:54:16;;;;;;;3.17;2.27;;;23.10;99.90;;;;;;5177101;27;20840;-64
2022/09/10 19:56:43;;;;;;;2.20;2.10;;;23.00;99.90;;;;;;5176933;27;20453;-61
2022/09/10 19:59:11;;;;;;;3.00;2.80;;;23.00;99.90;;;;;;5158322;27;20440;-57
